Time;durP1;ratioP1;P1;durP2;ratioP2;P2;SDS_P1;SDS_P2;PMS_P1;PMS_P2;Temp;Humidity;BMP_temperature;BMP_pressure;BME280_temperature;BME280_humidity;BME280_pressure;Samples;Min_cycle;Max_cycle;Signal;HPM_P1;HPM_P2
2023/12/17 00:00:25;;;;;;;16.25;7.05;;;9.20;99.90;;;;;;4990580;28;20034;-89
2023/12/17 00:02:50;;;;;;;12.82;6.70;;;9.20;99.90;;;;;;4977773;28;20026;-87
2023/12/17 00:05:16;;;;;;;9.93;5.88;;;9.20;99.90;;;;;;4973526;28;20033;-89
2023/12/17 00:07:42;;;;;;;11.40;6.82;;;9.20;99.90;;;;;;4990316;28;20026;-88
2023/12/17 00:10:08;;;;;;;14.73;7.20;;;9.10;99.90;;;;;;4986958;28;20105;-89
2023/12/17 00:12:34;;;;;;;13.45;7.10;;;9.10;99.90;;;;;;4987122;28;20113;-89
2023/12/17 00:14:59;;;;;;;11.85;6.30;;;9.10;99.90;;;;;;4972259;28;20110;-88
2023/12/17 00:17:25;;;;;;;10.63;6.03;;;9.10;99.90;;;;;;4982882;28;20072;-89
2023/12/17 00:19:50;;;;;;;13.32;6.80;;;9.10;99.90;;;;;;4984271;28;20027;-88
2023/12/17 00:22:16;;;;;;;10.55;6.25;;;9.10;99.90;;;;;;4992177;28;20018;-87
2023/12/17 00:24:42;;;;;;;9.05;5.68;;;9.10;99.90;;;;;;4973154;28;20031;-87
2023/12/17 00:27:07;;;;;;;12.10;5.90;;;9.10;99.90;;;;;;4975821;28;20035;-87
2023/12/17 00:29:33;;;;;;;9.90;6.18;;;9.20;99.90;;;;;;4990666;28;20037;-89
2023/12/17 00:31:58;;;;;;;10.80;6.30;;;9.10;99.90;;;;;;4991257;28;20066;-88
2023/12/17 00:34:24;;;;;;;11.00;6.18;;;9.10;99.90;;;;;;4986838;28;20144;-89
2023/12/17 00:36:49;;;;;;;11.88;5.82;;;9.10;99.90;;;;;;4990796;28;20392;-90
2023/12/17 00:39:15;;;;;;;12.40;5.97;;;9.20;99.90;;;;;;4990913;28;20507;-88
2023/12/17 00:41:40;;;;;;;11.63;5.88;;;9.20;99.90;;;;;;4990378;28;20389;-88
2023/12/17 00:44:06;;;;;;;11.40;6.13;;;9.10;99.90;;;;;;4974190;28;20369;-87
2023/12/17 00:46:31;;;;;;;10.23;5.93;;;9.20;99.90;;;;;;4988977;28;20034;-88
2023/12/17 00:48:57;;;;;;;11.60;6.78;;;9.10;99.90;;;;;;4991170;28;20022;-89
2023/12/17 00:51:23;;;;;;;11.23;5.90;;;9.10;99.90;;;;;;4991836;28;20046;-89
2023/12/17 00:53:48;;;;;;;11.23;6.07;;;9.20;99.90;;;;;;4990343;28;20559;-89
2023/12/17 00:56:14;;;;;;;10.60;6.18;;;9.10;99.90;;;;;;4983132;28;20031;-89
2023/12/17 00:58:39;;;;;;;12.23;5.70;;;9.10;99.90;;;;;;4987885;28;20049;-88
2023/12/17 01:01:05;;;;;;;10.55;5.75;;;9.10;99.90;;;;;;4991333;28;20029;-88
2023/12/17 01:03:31;;;;;;;14.85;6.15;;;9.10;99.90;;;;;;4995827;28;20023;-90
2023/12/17 01:05:56;;;;;;;9.50;5.68;;;9.10;99.90;;;;;;4997652;28;20116;-88
2023/12/17 01:08:22;;;;;;;8.38;5.10;;;9.10;99.90;;;;;;4991289;28;20029;-89
2023/12/17 01:10:47;;;;;;;9.52;5.72;;;9.10;99.90;;;;;;4982118;28;20011;-90
2023/12/17 01:13:13;;;;;;;9.65;6.07;;;9.10;99.90;;;;;;4988258;28;20061;-90
2023/12/17 01:15:38;;;;;;;11.15;6.32;;;9.10;99.90;;;;;;4974269;28;20033;-88
2023/12/17 01:18:04;;;;;;;13.18;5.75;;;9.10;99.90;;;;;;4990640;28;20027;-88
2023/12/17 01:20:29;;;;;;;11.27;6.55;;;9.20;99.90;;;;;;4991550;28;20756;-88
2023/12/17 01:22:55;;;;;;;16.10;6.15;;;9.10;99.90;;;;;;4977345;28;20510;-91
2023/12/17 01:25:20;;;;;;;9.32;5.55;;;9.10;99.90;;;;;;4997119;28;20030;-88
2023/12/17 01:27:46;;;;;;;10.10;5.65;;;9.10;99.90;;;;;;4989461;28;20081;-88
2023/12/17 01:30:12;;;;;;;10.05;5.50;;;9.10;99.90;;;;;;4994659;28;20030;-88
2023/12/17 01:32:37;;;;;;;12.43;5.78;;;9.10;99.90;;;;;;4994581;28;20089;-90
2023/12/17 01:35:05;;;;;;;15.73;6.25;;;9.10;99.90;;;;;;4993831;28;20030;-88
2023/12/17 01:37:31;;;;;;;8.60;5.50;;;9.10;99.90;;;;;;4989538;28;20026;-88
2023/12/17 01:39:56;;;;;;;10.40;5.70;;;9.10;99.90;;;;;;4994565;28;20026;-87
2023/12/17 01:42:22;;;;;;;10.68;5.50;;;9.10;99.90;;;;;;4993796;28;20036;-90
2023/12/17 01:44:47;;;;;;;11.70;5.90;;;9.10;99.90;;;;;;4991575;28;20106;-89
2023/12/17 01:47:13;;;;;;;8.32;5.50;;;9.10;99.90;;;;;;4976708;28;20034;-88
2023/12/17 01:49:39;;;;;;;8.13;5.60;;;9.10;99.90;;;;;;4966718;28;20081;-88
2023/12/17 01:52:05;;;;;;;9.98;5.63;;;9.10;99.90;;;;;;4993794;28;20057;-89
2023/12/17 01:54:31;;;;;;;9.32;5.80;;;9.10;99.90;;;;;;4989311;28;20042;-88
2023/12/17 01:56:56;;;;;;;10.68;5.80;;;9.10;99.90;;;;;;4984554;28;20473;-88
2023/12/17 01:59:22;;;;;;;10.60;5.68;;;9.10;99.90;;;;;;4990050;28;20469;-89
2023/12/17 02:01:52;;;;;;;9.50;5.55;;;9.10;99.90;;;;;;4987809;28;20030;-88
2023/12/17 02:04:21;;;;;;;9.98;6.10;;;9.10;99.90;;;;;;4984984;28;20022;-89
2023/12/17 02:06:46;;;;;;;11.48;6.60;;;9.10;99.90;;;;;;4992777;28;20485;-89
2023/12/17 02:09:12;;;;;;;8.48;5.80;;;9.10;99.90;;;;;;4974896;28;20033;-88
2023/12/17 02:11:37;;;;;;;11.57;6.40;;;9.10;99.90;;;;;;4990682;28;20558;-90
2023/12/17 02:14:03;;;;;;;9.68;6.10;;;9.10;99.90;;;;;;4980144;28;20026;-89
2023/12/17 02:16:28;;;;;;;12.05;6.18;;;9.10;99.90;;;;;;4994175;28;20097;-90
2023/12/17 02:18:57;;;;;;;10.90;5.88;;;9.10;99.90;;;;;;4993957;28;20010;-89
2023/12/17 02:21:23;;;;;;;13.20;6.32;;;9.10;99.90;;;;;;4993589;28;20025;-89
2023/12/17 02:23:49;;;;;;;12.85;6.20;;;9.10;99.90;;;;;;4993651;28;20109;-90
2023/12/17 02:26:15;;;;;;;9.35;5.78;;;9.10;99.90;;;;;;4992625;28;20023;-89
2023/12/17 02:28:41;;;;;;;12.50;5.38;;;9.10;99.90;;;;;;4976112;28;20023;-88
2023/12/17 02:31:07;;;;;;;9.25;5.55;;;9.10;99.90;;;;;;4976138;28;20557;-89
2023/12/17 02:33:32;;;;;;;8.43;5.38;;;9.10;99.90;;;;;;4990596;28;20027;-89
2023/12/17 02:35:58;;;;;;;10.65;5.80;;;9.10;99.90;;;;;;4990279;28;20038;-89
2023/12/17 02:38:23;;;;;;;8.80;6.03;;;9.10;99.90;;;;;;4978705;28;20061;-87
2023/12/17 02:40:49;;;;;;;9.75;5.32;;;9.10;99.90;;;;;;4992064;28;20018;-87
2023/12/17 02:43:14;;;;;;;11.25;5.78;;;9.10;99.90;;;;;;4992043;28;20046;-89
2023/12/17 02:45:40;;;;;;;12.80;5.13;;;9.10;99.90;;;;;;4993194;28;20028;-89
2023/12/17 02:48:05;;;;;;;11.98;5.68;;;9.10;99.90;;;;;;4993220;28;20100;-87
2023/12/17 02:50:31;;;;;;;11.02;5.70;;;9.10;99.90;;;;;;4975590;28;20038;-88
2023/12/17 02:52:57;;;;;;;8.63;5.25;;;9.10;99.90;;;;;;4972352;28;21514;-88
2023/12/17 02:55:22;;;;;;;9.02;5.30;;;9.10;99.90;;;;;;4988456;28;20476;-89
2023/12/17 02:57:48;;;;;;;7.53;5.60;;;9.10;99.90;;;;;;4976082;28;20433;-87
2023/12/17 03:00:14;;;;;;;10.05;5.10;;;9.10;99.90;;;;;;4992752;28;20066;-90
2023/12/17 03:02:39;;;;;;;8.15;5.35;;;9.10;99.90;;;;;;4988878;28;20501;-89
2023/12/17 03:05:05;;;;;;;14.05;5.65;;;9.10;99.90;;;;;;4989603;28;20038;-89
2023/12/17 03:07:31;;;;;;;7.07;4.78;;;9.10;99.90;;;;;;4992395;28;20029;-90
2023/12/17 03:09:56;;;;;;;10.32;6.20;;;9.00;99.90;;;;;;4993035;28;20029;-89
2023/12/17 03:12:22;;;;;;;9.25;5.40;;;9.10;99.90;;;;;;4987592;28;20034;-90
2023/12/17 03:14:47;;;;;;;8.95;5.32;;;9.00;99.90;;;;;;4987135;28;20117;-87
2023/12/17 03:17:13;;;;;;;7.75;4.72;;;9.00;99.90;;;;;;4992093;28;20058;-89
2023/12/17 03:19:38;;;;;;;8.90;5.15;;;9.00;99.90;;;;;;4992617;28;20022;-90
2023/12/17 03:22:04;;;;;;;8.43;4.88;;;9.00;99.90;;;;;;4981082;28;20500;-88
2023/12/17 03:24:29;;;;;;;8.52;5.75;;;9.00;99.90;;;;;;4976208;28;20515;-89
2023/12/17 03:26:55;;;;;;;12.45;4.95;;;9.00;99.90;;;;;;4987868;28;20033;-88
2023/12/17 03:29:20;;;;;;;10.40;6.03;;;9.00;99.90;;;;;;4979804;28;20054;-87
2023/12/17 03:31:46;;;;;;;6.95;4.55;;;9.00;99.90;;;;;;4982688;28;20092;-88
2023/12/17 03:34:12;;;;;;;6.63;4.60;;;9.00;99.90;;;;;;4991288;28;20030;-88
2023/12/17 03:36:38;;;;;;;14.45;5.28;;;9.00;99.90;;;;;;4989258;28;20054;-89
2023/12/17 03:39:04;;;;;;;8.98;5.00;;;9.00;99.90;;;;;;4991549;28;20056;-88
2023/12/17 03:41:29;;;;;;;11.07;4.85;;;9.00;99.90;;;;;;4974992;28;20022;-87
2023/12/17 03:43:57;;;;;;;8.90;5.10;;;9.00;99.90;;;;;;4990818;28;20106;-89
2023/12/17 03:46:24;;;;;;;9.73;5.10;;;9.00;99.90;;;;;;4978599;28;20073;-88
2023/12/17 03:48:50;;;;;;;9.50;5.40;;;9.00;99.90;;;;;;4990430;28;20022;-89
2023/12/17 03:51:16;;;;;;;9.57;5.13;;;9.00;99.90;;;;;;4992185;28;20101;-90
2023/12/17 03:53:42;;;;;;;14.85;5.70;;;9.00;99.90;;;;;;4991636;28;20419;-88
2023/12/17 03:56:12;;;;;;;9.68;5.30;;;9.00;99.90;;;;;;4992100;28;20039;-90
2023/12/17 03:58:38;;;;;;;9.07;5.07;;;9.00;99.90;;;;;;4990972;28;20030;-88
2023/12/17 04:01:05;;;;;;;8.60;4.70;;;9.00;99.90;;;;;;4975970;28;20084;-90
2023/12/17 04:03:30;;;;;;;12.57;5.50;;;9.00;99.90;;;;;;4967922;28;20308;-88
2023/12/17 04:05:58;;;;;;;10.48;5.65;;;9.00;99.90;;;;;;4991082;28;20683;-89
2023/12/17 04:08:24;;;;;;;9.80;5.47;;;9.00;99.90;;;;;;4991390;28;20040;-88
2023/12/17 04:10:49;;;;;;;11.73;5.18;;;9.00;99.90;;;;;;4991849;28;20714;-89
2023/12/17 04:13:15;;;;;;;8.65;5.00;;;9.00;99.90;;;;;;4991941;28;20491;-88
2023/12/17 04:15:40;;;;;;;7.53;5.40;;;9.00;99.90;;;;;;4983679;28;20027;-88
2023/12/17 04:18:06;;;;;;;8.65;4.72;;;9.00;99.90;;;;;;4984452;28;20023;-88
2023/12/17 04:20:32;;;;;;;10.02;5.28;;;9.00;99.90;;;;;;4983674;28;20032;-89
2023/12/17 04:22:57;;;;;;;8.75;5.38;;;9.00;99.90;;;;;;4973414;28;20019;-89
2023/12/17 04:25:23;;;;;;;13.10;5.13;;;9.00;99.90;;;;;;4989657;28;20592;-90
2023/12/17 04:27:48;;;;;;;9.02;5.88;;;9.00;99.90;;;;;;4990393;28;20392;-88
2023/12/17 04:30:14;;;;;;;8.32;5.18;;;9.00;99.90;;;;;;4988807;28;20036;-89
2023/12/17 04:32:39;;;;;;;8.32;4.63;;;9.00;99.90;;;;;;4991577;28;20032;-91
2023/12/17 04:35:06;;;;;;;9.65;5.10;;;9.00;99.90;;;;;;4992054;28;20026;-89
2023/12/17 04:37:32;;;;;;;10.00;4.65;;;9.00;99.90;;;;;;4988093;28;20655;-89
2023/12/17 04:39:57;;;;;;;11.00;5.60;;;9.00;99.90;;;;;;4987609;28;20105;-89
2023/12/17 04:42:23;;;;;;;9.48;5.18;;;9.00;99.90;;;;;;4990405;28;20499;-89
2023/12/17 04:44:48;;;;;;;8.45;4.70;;;9.00;99.90;;;;;;4993626;28;20027;-88
2023/12/17 04:47:14;;;;;;;10.05;4.78;;;9.00;99.90;;;;;;4981084;28;20050;-87
2023/12/17 04:49:40;;;;;;;13.45;5.03;;;9.00;99.90;;;;;;4984615;28;20031;-89
2023/12/17 04:52:05;;;;;;;7.95;5.30;;;9.00;99.90;;;;;;4988106;28;20041;-89
2023/12/17 04:54:31;;;;;;;8.88;4.90;;;9.00;99.90;;;;;;4991414;28;20420;-89
2023/12/17 04:56:57;;;;;;;10.60;5.90;;;9.00;99.90;;;;;;4991136;28;20025;-88
2023/12/17 04:59:23;;;;;;;8.35;5.13;;;9.00;99.90;;;;;;4990114;28;20026;-89
2023/12/17 05:01:48;;;;;;;9.18;5.38;;;9.00;99.90;;;;;;4974530;28;20029;-89
2023/12/17 05:04:15;;;;;;;7.32;5.05;;;8.90;99.90;;;;;;4994888;28;20042;-88
2023/12/17 05:06:41;;;;;;;8.23;5.22;;;8.90;99.90;;;;;;4990151;28;20026;-88
2023/12/17 05:09:07;;;;;;;10.30;5.63;;;8.90;99.90;;;;;;4977960;28;20481;-88
2023/12/17 05:11:33;;;;;;;10.00;5.13;;;8.90;99.90;;;;;;4975224;28;20492;-88
2023/12/17 05:13:58;;;;;;;7.55;5.03;;;8.90;99.90;;;;;;4989109;28;20072;-88
2023/12/17 05:16:24;;;;;;;10.13;5.70;;;9.00;99.90;;;;;;4991283;28;20064;-89
2023/12/17 05:18:49;;;;;;;8.82;4.95;;;9.00;99.90;;;;;;4996791;28;20054;-89
2023/12/17 05:21:15;;;;;;;7.60;5.18;;;8.90;99.90;;;;;;4988668;28;20050;-88
2023/12/17 05:23:41;;;;;;;12.80;5.38;;;9.00;99.90;;;;;;4993737;28;20061;-89
2023/12/17 05:26:06;;;;;;;7.88;4.93;;;8.90;99.90;;;;;;4994763;28;20030;-88
2023/12/17 05:28:32;;;;;;;8.27;4.97;;;9.00;99.90;;;;;;4994592;28;20054;-89
2023/12/17 05:30:57;;;;;;;10.52;5.50;;;8.90;99.90;;;;;;4990243;28;20492;-90
2023/12/17 05:33:23;;;;;;;7.20;4.82;;;8.90;99.90;;;;;;4994644;28;20066;-89
2023/12/17 05:35:48;;;;;;;9.25;5.13;;;8.90;99.90;;;;;;4988131;28;20421;-88
2023/12/17 05:38:16;;;;;;;9.93;5.75;;;9.00;99.90;;;;;;4988172;28;20031;-89
2023/12/17 05:40:41;;;;;;;8.60;6.03;;;8.90;99.90;;;;;;4977297;28;20029;-87
2023/12/17 05:43:08;;;;;;;9.32;5.47;;;8.90;99.90;;;;;;4981907;28;20034;-90
2023/12/17 05:45:33;;;;;;;12.50;6.40;;;8.90;99.90;;;;;;4973189;28;20377;-90
2023/12/17 05:47:59;;;;;;;11.00;5.78;;;8.90;99.90;;;;;;4980255;28;20028;-89
2023/12/17 05:50:24;;;;;;;13.65;6.35;;;8.90;99.90;;;;;;4994225;28;20109;-89
2023/12/17 05:52:50;;;;;;;9.50;5.57;;;8.90;99.90;;;;;;4987557;28;20436;-89
2023/12/17 05:55:16;;;;;;;9.98;5.43;;;8.90;99.90;;;;;;4993024;28;20507;-90
2023/12/17 05:57:42;;;;;;;10.48;5.75;;;8.90;99.90;;;;;;4991932;28;20117;-88
2023/12/17 06:00:09;;;;;;;10.75;5.78;;;8.90;99.90;;;;;;4993256;28;20018;-88
2023/12/17 06:02:34;;;;;;;11.63;6.05;;;8.90;99.90;;;;;;4991957;28;20018;-89
2023/12/17 06:05:00;;;;;;;13.07;5.88;;;8.90;99.90;;;;;;4994136;28;20018;-89
2023/12/17 06:07:25;;;;;;;10.25;5.97;;;8.90;99.90;;;;;;4992491;28;20085;-90
2023/12/17 06:09:51;;;;;;;10.25;5.57;;;8.90;99.90;;;;;;4991872;28;20064;-88
2023/12/17 06:12:17;;;;;;;10.38;5.38;;;8.90;99.90;;;;;;4982806;28;20395;-90
2023/12/17 06:14:43;;;;;;;9.85;5.82;;;8.90;99.90;;;;;;4986309;28;20033;-89
2023/12/17 06:17:08;;;;;;;9.10;5.18;;;8.90;99.90;;;;;;4992325;28;20022;-88
2023/12/17 06:19:34;;;;;;;9.43;5.25;;;8.90;99.90;;;;;;4990972;28;20061;-89
2023/12/17 06:22:02;;;;;;;8.88;5.53;;;8.90;99.90;;;;;;4980634;28;20045;-90
2023/12/17 06:24:28;;;;;;;13.48;5.72;;;8.90;99.90;;;;;;4976598;28;20113;-90
2023/12/17 06:26:54;;;;;;;11.07;6.00;;;8.90;99.90;;;;;;4972954;28;20026;-89
2023/12/17 06:29:19;;;;;;;8.85;5.38;;;8.90;99.90;;;;;;4998746;28;20033;-90
2023/12/17 06:31:45;;;;;;;11.32;5.43;;;8.90;99.90;;;;;;5000471;28;20019;-88
2023/12/17 06:34:11;;;;;;;13.00;6.00;;;8.90;99.90;;;;;;4984392;28;20042;-88
2023/12/17 06:36:36;;;;;;;14.27;6.18;;;8.90;99.90;;;;;;4987311;28;20034;-90
2023/12/17 06:39:02;;;;;;;10.32;5.75;;;8.90;99.90;;;;;;4988374;28;20061;-90
2023/12/17 06:41:28;;;;;;;9.52;5.30;;;8.90;99.90;;;;;;4967746;28;20023;-88
2023/12/17 06:43:54;;;;;;;9.88;5.20;;;8.90;99.90;;;;;;4981493;28;20031;-89
2023/12/17 06:46:19;;;;;;;11.02;5.10;;;8.90;99.90;;;;;;4978541;28;20026;-89
2023/12/17 06:48:49;;;;;;;9.98;5.70;;;8.90;99.90;;;;;;4975977;28;20029;-88
2023/12/17 06:51:14;;;;;;;9.68;5.47;;;8.90;99.90;;;;;;4982609;28;20023;-88
2023/12/17 06:53:40;;;;;;;10.25;5.15;;;8.90;99.90;;;;;;4993217;28;20374;-88
2023/12/17 06:56:06;;;;;;;9.15;5.03;;;8.90;99.90;;;;;;4974301;28;20030;-89
2023/12/17 06:58:33;;;;;;;9.77;5.63;;;8.90;99.90;;;;;;4976295;28;20072;-87
2023/12/17 07:00:58;;;;;;;8.95;5.22;;;8.90;99.90;;;;;;4992151;28;20043;-87
2023/12/17 07:03:24;;;;;;;10.05;5.55;;;8.90;99.90;;;;;;4971928;28;20046;-90
2023/12/17 07:05:50;;;;;;;9.73;6.00;;;8.90;99.90;;;;;;4986285;28;20031;-89
2023/12/17 07:08:15;;;;;;;10.18;5.78;;;8.90;99.90;;;;;;4984610;28;20114;-89
2023/12/17 07:10:41;;;;;;;10.57;6.43;;;8.90;99.90;;;;;;4991126;28;20097;-90
2023/12/17 07:13:07;;;;;;;9.45;5.90;;;8.90;99.90;;;;;;4973998;28;20030;-89
2023/12/17 07:15:32;;;;;;;11.15;6.50;;;8.90;99.90;;;;;;4991212;28;20041;-87
2023/12/17 07:17:58;;;;;;;11.38;5.93;;;8.90;99.90;;;;;;4974011;28;20015;-88
2023/12/17 07:20:23;;;;;;;10.60;6.57;;;8.90;99.90;;;;;;4991752;28;20026;-86
2023/12/17 07:22:49;;;;;;;9.10;6.15;;;8.90;99.90;;;;;;4979312;28;20018;-88
2023/12/17 07:25:17;;;;;;;14.77;6.30;;;8.90;99.90;;;;;;4992077;28;20026;-90
2023/12/17 07:27:42;;;;;;;10.70;5.97;;;8.90;99.90;;;;;;4982697;28;20064;-88
2023/12/17 07:30:09;;;;;;;14.73;6.85;;;8.80;99.90;;;;;;4992440;28;20085;-88
2023/12/17 07:32:34;;;;;;;11.77;6.25;;;8.90;99.90;;;;;;4989558;28;20038;-91
2023/12/17 07:35:00;;;;;;;9.75;6.47;;;8.90;99.90;;;;;;4992008;28;20022;-89
2023/12/17 07:37:25;;;;;;;12.80;6.40;;;8.90;99.90;;;;;;4990345;28;20529;-91
2023/12/17 07:39:51;;;;;;;12.98;6.85;;;8.90;99.90;;;;;;4991888;28;20034;-88
2023/12/17 07:42:16;;;;;;;14.13;6.25;;;8.90;99.90;;;;;;4991003;28;20031;-89
2023/12/17 07:44:42;;;;;;;14.68;6.53;;;8.90;99.90;;;;;;4983423;28;20502;-87
2023/12/17 07:47:10;;;;;;;11.70;5.93;;;8.90;99.90;;;;;;4974294;28;20026;-88
2023/12/17 07:49:39;;;;;;;11.68;6.63;;;8.90;99.90;;;;;;4991638;28;20077;-87
2023/12/17 07:52:04;;;;;;;9.07;5.63;;;8.90;99.90;;;;;;4992243;28;20041;-88
2023/12/17 07:54:30;;;;;;;13.20;6.80;;;8.90;99.90;;;;;;4990540;28;20030;-88
2023/12/17 07:56:56;;;;;;;14.20;7.35;;;8.90;99.90;;;;;;4991793;28;20029;-90
2023/12/17 07:59:21;;;;;;;10.68;6.07;;;8.90;99.90;;;;;;4976474;28;20022;-88
2023/12/17 08:01:48;;;;;;;9.30;6.43;;;9.00;99.90;;;;;;4978603;28;20022;-90
2023/12/17 08:04:13;;;;;;;14.52;6.47;;;9.00;99.90;;;;;;4990544;28;20026;-88
2023/12/17 08:06:39;;;;;;;11.18;6.60;;;9.00;99.90;;;;;;4991876;28;20399;-88
2023/12/17 08:09:04;;;;;;;9.63;5.85;;;9.00;99.90;;;;;;4991461;28;20034;-89
2023/12/17 08:11:30;;;;;;;12.15;6.30;;;9.00;99.90;;;;;;4999201;28;20023;-89
2023/12/17 08:13:56;;;;;;;10.05;6.22;;;9.00;99.90;;;;;;4979778;28;20031;-88
2023/12/17 08:16:21;;;;;;;20.25;7.85;;;8.90;99.90;;;;;;4991800;28;20087;-89
2023/12/17 08:18:47;;;;;;;12.05;7.18;;;8.90;99.90;;;;;;4991153;28;20539;-88
2023/12/17 08:21:12;;;;;;;11.32;6.78;;;9.00;99.90;;;;;;4991914;28;20027;-87
2023/12/17 08:23:38;;;;;;;19.60;6.43;;;9.00;99.90;;;;;;4975348;28;20022;-88
2023/12/17 08:26:04;;;;;;;11.55;6.57;;;9.00;99.90;;;;;;4988105;28;20106;-88
2023/12/17 08:28:29;;;;;;;11.77;6.93;;;9.00;99.90;;;;;;4986770;28;20019;-89
2023/12/17 08:30:55;;;;;;;12.57;6.95;;;9.10;99.90;;;;;;4976066;28;20014;-88
2023/12/17 08:33:21;;;;;;;11.45;6.45;;;9.10;99.90;;;;;;4995275;28;20495;-89
2023/12/17 08:35:47;;;;;;;15.82;6.28;;;9.10;99.90;;;;;;4977843;28;20034;-89
2023/12/17 08:38:13;;;;;;;11.65;6.70;;;9.10;99.90;;;;;;4994096;28;20022;-88
2023/12/17 08:40:40;;;;;;;16.95;7.53;;;9.10;99.90;;;;;;4994364;28;20065;-88
2023/12/17 08:43:12;;;;;;;13.45;7.25;;;9.10;99.90;;;;;;4993702;28;20360;-90
2023/12/17 08:45:37;;;;;;;17.80;7.25;;;9.10;99.90;;;;;;4979386;28;20023;-87
2023/12/17 08:48:04;;;;;;;13.00;6.28;;;9.10;99.90;;;;;;4980703;28;20030;-89
2023/12/17 08:50:30;;;;;;;14.95;7.50;;;9.10;99.90;;;;;;4977265;28;20081;-89
2023/12/17 08:52:55;;;;;;;12.05;6.85;;;9.10;99.90;;;;;;4993213;28;20464;-89
2023/12/17 08:55:21;;;;;;;14.27;7.90;;;9.10;99.90;;;;;;4995058;28;20578;-88
2023/12/17 08:57:47;;;;;;;18.48;8.38;;;9.20;99.90;;;;;;4968991;28;20069;-90
2023/12/17 09:00:13;;;;;;;14.98;8.13;;;9.20;99.90;;;;;;5001734;28;20022;-88
2023/12/17 09:02:39;;;;;;;16.13;8.38;;;9.20;99.90;;;;;;4994857;28;20400;-86
2023/12/17 09:05:05;;;;;;;17.25;8.45;;;9.10;99.90;;;;;;4993247;28;20030;-88
2023/12/17 09:07:31;;;;;;;13.10;7.90;;;9.10;99.90;;;;;;4988981;28;20567;-90
2023/12/17 09:09:57;;;;;;;16.98;8.40;;;9.10;99.90;;;;;;4992309;28;20101;-87
2023/12/17 09:12:23;;;;;;;16.80;8.25;;;9.20;99.90;;;;;;4993169;28;20030;-90
2023/12/17 09:14:49;;;;;;;16.52;8.48;;;9.20;99.90;;;;;;4993673;28;20125;-88
2023/12/17 09:17:15;;;;;;;11.45;4.72;;;9.20;99.90;;;;;;4979411;28;20026;-86
2023/12/17 09:19:40;;;;;;;10.88;4.80;;;10.70;99.90;;;;;;4994496;28;20015;-87
2023/12/17 09:22:06;;;;;;;7.65;4.32;;;12.10;99.90;;;;;;4975664;28;20404;-86
2023/12/17 09:24:31;;;;;;;10.50;4.57;;;12.70;98.30;;;;;;4993476;28;20034;-87
2023/12/17 09:26:57;;;;;;;10.13;4.07;;;12.80;97.60;;;;;;4972208;28;20515;-85
2023/12/17 09:29:23;;;;;;;10.73;4.88;;;12.70;99.60;;;;;;4994053;28;20038;-90
2023/12/17 09:31:49;;;;;;;8.82;5.15;;;12.40;99.70;;;;;;4994888;28;20181;-91
2023/12/17 09:34:14;;;;;;;9.52;5.47;;;12.30;99.60;;;;;;4994528;28;20038;-87
2023/12/17 09:36:43;;;;;;;10.55;5.22;;;12.20;99.70;;;;;;4992648;28;20031;-86
2023/12/17 09:39:09;;;;;;;15.70;6.05;;;12.20;99.20;;;;;;4976023;28;20496;-88
2023/12/17 09:41:35;;;;;;;14.48;6.28;;;12.10;97.00;;;;;;4992471;28;20054;-87
2023/12/17 09:44:04;;;;;;;13.73;6.90;;;11.00;99.90;;;;;;4993536;28;20097;-89
2023/12/17 09:46:29;;;;;;;10.57;6.82;;;10.30;99.90;;;;;;4977695;28;20114;-89
2023/12/17 09:48:55;;;;;;;12.55;7.18;;;9.90;99.90;;;;;;4976705;28;20121;-88
2023/12/17 09:51:25;;;;;;;15.52;7.45;;;9.70;99.90;;;;;;4993120;28;20142;-89
2023/12/17 09:53:50;;;;;;;15.50;7.13;;;9.60;99.90;;;;;;4991851;28;20129;-88
2023/12/17 09:56:16;;;;;;;13.95;7.50;;;9.50;99.90;;;;;;4983625;28;20105;-87
2023/12/17 10:01:38;;;;;;;13.07;7.75;;;9.50;99.90;;;;;;5671644;23;20054;-88
2023/12/17 10:04:03;;;;;;;16.25;7.93;;;9.50;99.90;;;;;;4963594;28;20046;-87
2023/12/17 10:06:31;;;;;;;12.65;6.97;;;9.40;99.90;;;;;;4972041;28;20027;-89
2023/12/17 10:08:58;;;;;;;14.60;8.23;;;9.40;99.90;;;;;;4969303;28;20027;-86
2023/12/17 10:11:24;;;;;;;12.40;7.35;;;9.40;99.90;;;;;;4948942;29;20050;-88
2023/12/17 10:13:51;;;;;;;16.13;8.15;;;9.40;99.90;;;;;;4949258;28;20142;-86
2023/12/17 10:16:16;;;;;;;15.32;8.43;;;9.40;99.90;;;;;;4961813;28;20126;-87
2023/12/17 10:18:48;;;;;;;16.88;8.70;;;9.40;99.90;;;;;;4955524;28;20523;-89
2023/12/17 10:21:13;;;;;;;16.08;9.07;;;9.40;99.90;;;;;;4966390;28;20058;-87
2023/12/17 10:23:46;;;;;;;16.00;8.63;;;9.40;99.90;;;;;;4969307;28;20054;-86
2023/12/17 10:26:12;;;;;;;17.17;8.55;;;9.40;99.90;;;;;;4958636;28;20042;-87
2023/12/17 10:28:43;;;;;;;17.88;8.90;;;9.40;99.90;;;;;;4953650;28;20062;-87
2023/12/17 10:31:10;;;;;;;18.92;8.57;;;9.40;99.90;;;;;;4964465;28;20476;-90
2023/12/17 10:33:43;;;;;;;14.27;7.82;;;9.40;99.90;;;;;;4952337;28;20435;-88
2023/12/17 10:36:10;;;;;;;14.35;8.50;;;9.40;99.90;;;;;;4953576;28;20054;-87
2023/12/17 10:38:37;;;;;;;15.18;8.60;;;9.40;99.90;;;;;;4954927;28;20054;-90
2023/12/17 10:41:04;;;;;;;15.82;8.07;;;9.50;99.90;;;;;;4954766;28;20595;-88
2023/12/17 10:43:31;;;;;;;18.80;8.63;;;9.50;99.90;;;;;;4966492;28;20030;-90
2023/12/17 10:45:59;;;;;;;16.10;8.18;;;9.50;99.90;;;;;;4949360;28;20027;-88
2023/12/17 10:48:25;;;;;;;15.30;8.40;;;9.50;99.90;;;;;;4952124;28;20023;-90
2023/12/17 10:50:51;;;;;;;13.48;7.68;;;9.50;99.90;;;;;;4955574;28;20035;-87
2023/12/17 10:53:17;;;;;;;15.10;8.15;;;9.50;99.90;;;;;;4950802;28;20058;-90
2023/12/17 10:55:43;;;;;;;15.13;8.57;;;9.50;99.90;;;;;;4971172;28;20054;-88
2023/12/17 10:58:14;;;;;;;17.38;8.30;;;9.50;99.90;;;;;;4952216;28;20027;-90
2023/12/17 11:00:40;;;;;;;14.40;8.18;;;9.50;99.90;;;;;;4954898;28;20023;-89
2023/12/17 11:03:09;;;;;;;18.38;8.20;;;9.50;99.90;;;;;;4954737;28;20023;-90
2023/12/17 11:05:34;;;;;;;17.55;9.10;;;9.50;99.90;;;;;;4971200;28;20041;-90
2023/12/17 11:08:00;;;;;;;16.60;8.73;;;9.50;99.90;;;;;;4953631;28;20034;-89
2023/12/17 11:10:26;;;;;;;14.30;7.90;;;9.50;99.90;;;;;;4950855;28;20085;-88
2023/12/17 11:12:51;;;;;;;16.58;8.57;;;9.50;99.90;;;;;;4955723;28;20590;-87
2023/12/17 11:15:23;;;;;;;15.57;7.45;;;9.50;99.90;;;;;;4958902;28;20034;-90
2023/12/17 11:17:53;;;;;;;16.65;8.98;;;9.50;99.90;;;;;;4955584;28;20118;-88
2023/12/17 11:20:18;;;;;;;19.07;9.27;;;9.50;99.90;;;;;;4955891;28;20026;-90
2023/12/17 11:22:45;;;;;;;14.95;7.90;;;9.60;99.90;;;;;;4972774;28;20027;-91
2023/12/17 11:25:12;;;;;;;17.15;8.52;;;9.50;99.90;;;;;;4973213;28;20105;-89
2023/12/17 11:27:39;;;;;;;21.50;8.57;;;9.60;99.90;;;;;;4972317;28;20058;-88
2023/12/17 11:30:29;;;;;;;14.02;8.27;;;9.60;99.90;;;;;;4972523;28;20551;-90
2023/12/17 11:32:56;;;;;;;15.43;8.27;;;9.60;99.90;;;;;;4971306;28;20066;-90
2023/12/17 11:35:22;;;;;;;17.15;8.75;;;9.60;99.90;;;;;;4972797;28;20027;-89
2023/12/17 11:37:48;;;;;;;14.00;8.02;;;9.60;99.90;;;;;;4972912;28;20066;-90
2023/12/17 11:40:13;;;;;;;16.13;8.82;;;9.70;99.90;;;;;;4955107;28;20023;-89
2023/12/17 11:42:40;;;;;;;14.23;8.55;;;9.70;99.90;;;;;;4969709;28;20090;-87
2023/12/17 11:45:06;;;;;;;16.02;7.97;;;9.60;99.90;;;;;;4971636;28;20489;-89
2023/12/17 11:47:32;;;;;;;9.02;4.43;;;9.70;99.90;;;;;;4970985;28;20023;-89
2023/12/17 11:50:01;;;;;;;15.55;5.72;;;10.40;99.90;;;;;;4973053;28;20077;-90
2023/12/17 11:52:29;;;;;;;12.00;5.68;;;10.50;99.90;;;;;;4956042;28;20554;-91
2023/12/17 11:54:59;;;;;;;10.85;6.28;;;10.10;99.90;;;;;;4956337;28;20031;-90
2023/12/17 11:57:25;;;;;;;12.57;6.13;;;9.90;99.90;;;;;;4973263;28;20098;-91
2023/12/17 11:59:51;;;;;;;13.90;7.10;;;9.80;99.90;;;;;;4966550;28;20034;-92
2023/12/17 12:02:18;;;;;;;10.63;6.07;;;9.70;99.90;;;;;;4955915;28;20396;-89
2023/12/17 12:04:45;;;;;;;10.23;6.57;;;9.70;99.90;;;;;;4958482;28;20035;-89
2023/12/17 12:07:14;;;;;;;10.95;6.47;;;9.60;99.90;;;;;;4956395;28;20085;-91
2023/12/17 12:09:40;;;;;;;11.40;6.37;;;9.60;99.90;;;;;;4956167;28;20054;-90
2023/12/17 12:12:16;;;;;;;12.18;6.65;;;9.60;99.90;;;;;;4971632;28;20301;-90
2023/12/17 12:14:47;;;;;;;13.93;7.53;;;9.50;99.90;;;;;;4955820;28;20058;-94
2023/12/17 12:17:40;;;;;;;11.95;6.78;;;9.50;99.90;;;;;;4951663;28;20192;-91
2023/12/17 12:20:10;;;;;;;13.82;7.00;;;9.50;99.90;;;;;;4956352;28;20026;-90
2023/12/17 12:22:37;;;;;;;;;;;9.40;99.90;;;;;;4956262;28;20018;-90
2023/12/17 12:25:03;;;;;;;15.55;7.65;;;9.40;99.90;;;;;;4967935;28;19934;-87
2023/12/17 12:27:29;;;;;;;13.55;6.63;;;9.40;99.90;;;;;;4951914;28;20023;-86
2023/12/17 12:29:59;;;;;;;12.27;7.35;;;9.40;99.90;;;;;;4952182;28;20042;-85
2023/12/17 12:32:29;;;;;;;12.80;7.60;;;9.40;99.90;;;;;;4953560;28;20023;-87
2023/12/17 12:34:55;;;;;;;10.98;6.25;;;9.40;99.90;;;;;;4960432;28;20027;-86
2023/12/17 12:37:31;;;;;;;19.90;7.35;;;9.40;99.90;;;;;;4953736;28;20027;-86
2023/12/17 12:39:56;;;;;;;13.52;7.22;;;9.40;99.90;;;;;;4950283;28;20045;-87
2023/12/17 12:42:22;;;;;;;11.43;6.80;;;9.30;99.90;;;;;;4953721;28;20492;-86
2023/12/17 12:44:48;;;;;;;12.85;7.22;;;9.30;99.90;;;;;;4969667;28;20033;-85
2023/12/17 12:47:13;;;;;;;12.38;6.90;;;9.30;99.90;;;;;;4971449;28;20050;-86